Terminal Aerodrome Forecast
Issued by NWS

Home | Current Version | Previous Version | Text Only | Print | Product List | Glossary On
Versions: 1 2 3 4 5 6 7 8 9 10 11 12 13 14 15 16
801
FTUS45 KABQ 221129
TAFSAF
TAF
KSAF 221129Z 2212/2312 36008KT P6SM SCT060
     FM221700 28010KT P6SM SCT150
     FM230000 32008KT P6SM BKN060
     FM230600 32008KT P6SM VCSH BKN035=

USA.gov is the U.S. government's official web portal to all federal, state and local government web resources and services.